sensor_id;sensor_type;location;lat;lon;timestamp;temperature;humidity
23291;DHT22;11814;44.686;10.842;2024-03-22T00:00:10;14.00;99.90
23291;DHT22;11814;44.686;10.842;2024-03-22T00:02:37;14.00;99.90
23291;DHT22;11814;44.686;10.842;2024-03-22T00:05:03;14.00;99.90
23291;DHT22;11814;44.686;10.842;2024-03-22T00:07:29;13.90;99.90
23291;DHT22;11814;44.686;10.842;2024-03-22T00:09:55;13.90;99.90
23291;DHT22;11814;44.686;10.842;2024-03-22T00:12:20;13.90;99.90
23291;DHT22;11814;44.686;10.842;2024-03-22T00:14:46;13.90;99.90
23291;DHT22;11814;44.686;10.842;2024-03-22T00:17:12;13.90;99.90
23291;DHT22;11814;44.686;10.842;2024-03-22T00:19:37;13.90;99.90
23291;DHT22;11814;44.686;10.842;2024-03-22T00:22:03;13.90;99.90
23291;DHT22;11814;44.686;10.842;2024-03-22T00:24:29;13.90;99.90
23291;DHT22;11814;44.686;10.842;2024-03-22T00:26:54;13.80;99.90
23291;DHT22;11814;44.686;10.842;2024-03-22T00:29:20;13.80;99.90
23291;DHT22;11814;44.686;10.842;2024-03-22T00:31:46;13.80;99.90
23291;DHT22;11814;44.686;10.842;2024-03-22T00:34:11;13.70;99.90
23291;DHT22;11814;44.686;10.842;2024-03-22T00:36:37;13.80;99.90
23291;DHT22;11814;44.686;10.842;2024-03-22T00:39:02;13.70;99.90
23291;DHT22;11814;44.686;10.842;2024-03-22T00:41:28;13.70;99.90
23291;DHT22;11814;44.686;10.842;2024-03-22T00:43:54;13.70;99.90
23291;DHT22;11814;44.686;10.842;2024-03-22T00:46:20;13.60;99.90
23291;DHT22;11814;44.686;10.842;2024-03-22T00:48:45;13.50;99.90
23291;DHT22;11814;44.686;10.842;2024-03-22T00:51:11;13.40;99.90
23291;DHT22;11814;44.686;10.842;2024-03-22T00:53:36;13.40;99.90
23291;DHT22;11814;44.686;10.842;2024-03-22T00:56:02;13.30;99.90
23291;DHT22;11814;44.686;10.842;2024-03-22T00:58:28;13.30;99.90
23291;DHT22;11814;44.686;10.842;2024-03-22T01:00:54;13.20;99.90
23291;DHT22;11814;44.686;10.842;2024-03-22T01:03:21;13.20;99.90
23291;DHT22;11814;44.686;10.842;2024-03-22T01:05:46;13.20;99.90
23291;DHT22;11814;44.686;10.842;2024-03-22T01:08:12;13.20;99.90
23291;DHT22;11814;44.686;10.842;2024-03-22T01:10:37;13.20;99.90
23291;DHT22;11814;44.686;10.842;2024-03-22T01:13:03;13.20;99.90
23291;DHT22;11814;44.686;10.842;2024-03-22T01:15:29;13.20;99.90
23291;DHT22;11814;44.686;10.842;2024-03-22T01:17:55;13.10;99.90
23291;DHT22;11814;44.686;10.842;2024-03-22T01:20:21;13.10;99.90
23291;DHT22;11814;44.686;10.842;2024-03-22T01:22:47;13.00;99.90
23291;DHT22;11814;44.686;10.842;2024-03-22T01:25:12;12.90;99.90
23291;DHT22;11814;44.686;10.842;2024-03-22T01:27:38;12.90;99.90
23291;DHT22;11814;44.686;10.842;2024-03-22T01:30:04;12.90;99.90
23291;DHT22;11814;44.686;10.842;2024-03-22T01:32:30;12.80;99.90
23291;DHT22;11814;44.686;10.842;2024-03-22T01:34:57;12.90;99.90
23291;DHT22;11814;44.686;10.842;2024-03-22T01:37:22;12.90;99.90
23291;DHT22;11814;44.686;10.842;2024-03-22T01:39:48;12.90;99.90
23291;DHT22;11814;44.686;10.842;2024-03-22T01:42:13;12.90;99.90
23291;DHT22;11814;44.686;10.842;2024-03-22T01:44:39;12.90;99.90
23291;DHT22;11814;44.686;10.842;2024-03-22T01:47:05;12.80;99.90
23291;DHT22;11814;44.686;10.842;2024-03-22T01:49:30;12.80;99.90
23291;DHT22;11814;44.686;10.842;2024-03-22T01:51:57;12.80;99.90
23291;DHT22;11814;44.686;10.842;2024-03-22T01:54:22;12.80;99.90
23291;DHT22;11814;44.686;10.842;2024-03-22T01:56:48;12.70;99.90
23291;DHT22;11814;44.686;10.842;2024-03-22T01:59:14;12.80;99.90
23291;DHT22;11814;44.686;10.842;2024-03-22T02:01:40;12.80;99.90
23291;DHT22;11814;44.686;10.842;2024-03-22T02:04:06;12.90;99.90
23291;DHT22;11814;44.686;10.842;2024-03-22T02:06:32;12.80;99.90
23291;DHT22;11814;44.686;10.842;2024-03-22T02:08:59;12.90;99.90
23291;DHT22;11814;44.686;10.842;2024-03-22T02:11:26;13.00;99.90
23291;DHT22;11814;44.686;10.842;2024-03-22T02:13:52;13.00;99.90
23291;DHT22;11814;44.686;10.842;2024-03-22T02:16:17;13.10;99.90
23291;DHT22;11814;44.686;10.842;2024-03-22T02:18:43;13.00;99.90
23291;DHT22;11814;44.686;10.842;2024-03-22T02:21:10;13.00;99.90
23291;DHT22;11814;44.686;10.842;2024-03-22T02:23:37;12.90;99.90
23291;DHT22;11814;44.686;10.842;2024-03-22T02:26:03;12.80;99.90
23291;DHT22;11814;44.686;10.842;2024-03-22T02:28:30;12.70;99.90
23291;DHT22;11814;44.686;10.842;2024-03-22T02:30:57;12.60;99.90
23291;DHT22;11814;44.686;10.842;2024-03-22T02:33:23;12.60;99.90
23291;DHT22;11814;44.686;10.842;2024-03-22T02:35:49;12.60;99.90
23291;DHT22;11814;44.686;10.842;2024-03-22T02:38:16;12.60;99.90
23291;DHT22;11814;44.686;10.842;2024-03-22T02:40:43;12.70;99.90
23291;DHT22;11814;44.686;10.842;2024-03-22T02:43:09;12.70;99.90
23291;DHT22;11814;44.686;10.842;2024-03-22T02:45:34;12.80;99.90
23291;DHT22;11814;44.686;10.842;2024-03-22T02:48:00;12.80;99.90
23291;DHT22;11814;44.686;10.842;2024-03-22T02:50:25;12.80;99.90
23291;DHT22;11814;44.686;10.842;2024-03-22T02:52:51;12.70;99.90
23291;DHT22;11814;44.686;10.842;2024-03-22T02:55:17;12.70;99.90
23291;DHT22;11814;44.686;10.842;2024-03-22T02:57:42;12.60;99.90
23291;DHT22;11814;44.686;10.842;2024-03-22T03:00:08;12.60;99.90
23291;DHT22;11814;44.686;10.842;2024-03-22T03:02:34;12.60;99.90
23291;DHT22;11814;44.686;10.842;2024-03-22T03:05:00;12.60;99.90
23291;DHT22;11814;44.686;10.842;2024-03-22T03:07:26;12.70;99.90
23291;DHT22;11814;44.686;10.842;2024-03-22T03:09:53;12.60;99.90
23291;DHT22;11814;44.686;10.842;2024-03-22T03:12:18;12.60;99.90
23291;DHT22;11814;44.686;10.842;2024-03-22T03:14:44;12.50;99.90
23291;DHT22;11814;44.686;10.842;2024-03-22T03:17:10;12.50;99.90
23291;DHT22;11814;44.686;10.842;2024-03-22T03:19:36;12.40;99.90
23291;DHT22;11814;44.686;10.842;2024-03-22T03:22:01;12.30;99.90
23291;DHT22;11814;44.686;10.842;2024-03-22T03:24:27;12.20;99.90
23291;DHT22;11814;44.686;10.842;2024-03-22T03:26:53;12.20;99.90
23291;DHT22;11814;44.686;10.842;2024-03-22T03:29:19;12.10;99.90
23291;DHT22;11814;44.686;10.842;2024-03-22T03:31:44;12.00;99.90
23291;DHT22;11814;44.686;10.842;2024-03-22T03:34:10;12.00;99.90
23291;DHT22;11814;44.686;10.842;2024-03-22T03:36:35;11.90;99.90
23291;DHT22;11814;44.686;10.842;2024-03-22T03:39:01;11.90;99.90
23291;DHT22;11814;44.686;10.842;2024-03-22T03:41:26;11.80;99.90
23291;DHT22;11814;44.686;10.842;2024-03-22T03:43:52;11.80;99.90
23291;DHT22;11814;44.686;10.842;2024-03-22T03:46:18;11.80;99.90
23291;DHT22;11814;44.686;10.842;2024-03-22T03:48:43;11.70;99.90
23291;DHT22;11814;44.686;10.842;2024-03-22T03:51:09;11.70;99.90
23291;DHT22;11814;44.686;10.842;2024-03-22T03:53:34;11.70;99.90
23291;DHT22;11814;44.686;10.842;2024-03-22T03:56:00;11.60;99.90
23291;DHT22;11814;44.686;10.842;2024-03-22T03:58:25;11.60;99.90
23291;DHT22;11814;44.686;10.842;2024-03-22T04:00:51;11.60;99.90
23291;DHT22;11814;44.686;10.842;2024-03-22T04:03:17;11.60;99.90
23291;DHT22;11814;44.686;10.842;2024-03-22T04:05:42;11.50;99.90
23291;DHT22;11814;44.686;10.842;2024-03-22T04:08:08;11.50;99.90
23291;DHT22;11814;44.686;10.842;2024-03-22T04:10:33;11.50;99.90
23291;DHT22;11814;44.686;10.842;2024-03-22T04:13:02;11.40;99.90
23291;DHT22;11814;44.686;10.842;2024-03-22T04:15:28;11.40;99.90
23291;DHT22;11814;44.686;10.842;2024-03-22T04:17:56;11.40;99.90
23291;DHT22;11814;44.686;10.842;2024-03-22T04:20:21;11.30;99.90
23291;DHT22;11814;44.686;10.842;2024-03-22T04:22:47;11.30;99.90
23291;DHT22;11814;44.686;10.842;2024-03-22T04:25:15;11.20;99.90
23291;DHT22;11814;44.686;10.842;2024-03-22T04:27:40;11.20;99.90
23291;DHT22;11814;44.686;10.842;2024-03-22T04:30:07;11.20;99.90
23291;DHT22;11814;44.686;10.842;2024-03-22T04:32:33;11.20;99.90
23291;DHT22;11814;44.686;10.842;2024-03-22T04:34:59;11.10;99.90
23291;DHT22;11814;44.686;10.842;2024-03-22T04:37:27;11.10;99.90
23291;DHT22;11814;44.686;10.842;2024-03-22T04:39:53;11.10;99.90
23291;DHT22;11814;44.686;10.842;2024-03-22T04:42:19;11.00;99.90
23291;DHT22;11814;44.686;10.842;2024-03-22T04:44:45;10.90;99.90
23291;DHT22;11814;44.686;10.842;2024-03-22T04:47:10;11.00;99.90
23291;DHT22;11814;44.686;10.842;2024-03-22T04:49:36;11.00;99.90
23291;DHT22;11814;44.686;10.842;2024-03-22T04:52:01;10.90;99.90
23291;DHT22;11814;44.686;10.842;2024-03-22T04:54:27;11.00;99.90
23291;DHT22;11814;44.686;10.842;2024-03-22T04:56:53;11.00;99.90
23291;DHT22;11814;44.686;10.842;2024-03-22T04:59:18;11.00;99.90
23291;DHT22;11814;44.686;10.842;2024-03-22T05:01:44;11.10;99.90
23291;DHT22;11814;44.686;10.842;2024-03-22T05:04:10;11.10;99.90
23291;DHT22;11814;44.686;10.842;2024-03-22T05:06:35;11.10;99.90
23291;DHT22;11814;44.686;10.842;2024-03-22T05:09:01;11.10;99.90
23291;DHT22;11814;44.686;10.842;2024-03-22T05:11:28;11.10;99.90
23291;DHT22;11814;44.686;10.842;2024-03-22T05:13:54;11.10;99.90
23291;DHT22;11814;44.686;10.842;2024-03-22T05:16:19;11.10;99.90
23291;DHT22;11814;44.686;10.842;2024-03-22T05:18:45;11.20;99.90
23291;DHT22;11814;44.686;10.842;2024-03-22T05:21:10;11.20;99.90
23291;DHT22;11814;44.686;10.842;2024-03-22T05:23:36;11.10;99.90
23291;DHT22;11814;44.686;10.842;2024-03-22T05:26:02;11.20;99.90
23291;DHT22;11814;44.686;10.842;2024-03-22T05:28:29;11.20;99.90
23291;DHT22;11814;44.686;10.842;2024-03-22T05:30:56;11.20;99.90
23291;DHT22;11814;44.686;10.842;2024-03-22T05:33:21;11.20;99.90
23291;DHT22;11814;44.686;10.842;2024-03-22T05:35:47;11.20;99.90
23291;DHT22;11814;44.686;10.842;2024-03-22T05:38:12;11.20;99.90
23291;DHT22;11814;44.686;10.842;2024-03-22T05:40:38;11.20;99.90
23291;DHT22;11814;44.686;10.842;2024-03-22T05:43:04;11.30;99.90
23291;DHT22;11814;44.686;10.842;2024-03-22T05:45:30;11.40;99.90
23291;DHT22;11814;44.686;10.842;2024-03-22T05:47:56;11.50;99.90
23291;DHT22;11814;44.686;10.842;2024-03-22T05:50:21;11.70;99.90
23291;DHT22;11814;44.686;10.842;2024-03-22T05:52:47;11.60;99.90
23291;DHT22;11814;44.686;10.842;2024-03-22T05:55:13;11.70;99.90
23291;DHT22;11814;44.686;10.842;2024-03-22T05:57:38;11.90;99.90
23291;DHT22;11814;44.686;10.842;2024-03-22T06:00:05;12.00;99.90
23291;DHT22;11814;44.686;10.842;2024-03-22T06:02:32;12.20;99.90
23291;DHT22;11814;44.686;10.842;2024-03-22T06:04:58;12.40;99.90
23291;DHT22;11814;44.686;10.842;2024-03-22T06:07:24;12.50;99.90
23291;DHT22;11814;44.686;10.842;2024-03-22T06:09:50;12.60;99.90
23291;DHT22;11814;44.686;10.842;2024-03-22T06:12:18;12.70;99.90
23291;DHT22;11814;44.686;10.842;2024-03-22T06:14:44;13.00;99.90
23291;DHT22;11814;44.686;10.842;2024-03-22T06:17:11;13.40;99.90
23291;DHT22;11814;44.686;10.842;2024-03-22T06:19:37;13.80;99.90
23291;DHT22;11814;44.686;10.842;2024-03-22T06:22:02;14.10;99.90
23291;DHT22;11814;44.686;10.842;2024-03-22T06:24:28;14.40;99.90
23291;DHT22;11814;44.686;10.842;2024-03-22T06:26:54;14.80;99.90
23291;DHT22;11814;44.686;10.842;2024-03-22T06:29:20;15.20;99.90
23291;DHT22;11814;44.686;10.842;2024-03-22T06:31:46;15.70;99.90
23291;DHT22;11814;44.686;10.842;2024-03-22T06:34:11;16.40;99.90
23291;DHT22;11814;44.686;10.842;2024-03-22T06:36:37;17.00;99.90
23291;DHT22;11814;44.686;10.842;2024-03-22T06:39:03;17.70;99.90
23291;DHT22;11814;44.686;10.842;2024-03-22T06:41:32;18.50;99.90
23291;DHT22;11814;44.686;10.842;2024-03-22T06:43:57;19.40;99.90
23291;DHT22;11814;44.686;10.842;2024-03-22T06:46:23;20.50;98.50
23291;DHT22;11814;44.686;10.842;2024-03-22T06:48:50;21.60;93.90
23291;DHT22;11814;44.686;10.842;2024-03-22T06:51:16;22.60;90.50
23291;DHT22;11814;44.686;10.842;2024-03-22T06:53:41;23.50;84.40
23291;DHT22;11814;44.686;10.842;2024-03-22T06:56:07;24.10;78.90
23291;DHT22;11814;44.686;10.842;2024-03-22T06:58:35;24.70;74.60
23291;DHT22;11814;44.686;10.842;2024-03-22T07:01:01;25.20;72.20
23291;DHT22;11814;44.686;10.842;2024-03-22T07:03:27;25.60;69.70
23291;DHT22;11814;44.686;10.842;2024-03-22T07:05:52;25.90;67.70
23291;DHT22;11814;44.686;10.842;2024-03-22T07:08:18;26.10;65.40
23291;DHT22;11814;44.686;10.842;2024-03-22T07:10:44;26.30;64.00
23291;DHT22;11814;44.686;10.842;2024-03-22T07:13:11;26.40;62.90
23291;DHT22;11814;44.686;10.842;2024-03-22T07:15:37;26.70;62.00
23291;DHT22;11814;44.686;10.842;2024-03-22T07:18:03;26.90;60.80
23291;DHT22;11814;44.686;10.842;2024-03-22T07:20:30;27.00;60.10
23291;DHT22;11814;44.686;10.842;2024-03-22T07:22:55;27.30;59.10
23291;DHT22;11814;44.686;10.842;2024-03-22T07:25:21;27.60;58.10
23291;DHT22;11814;44.686;10.842;2024-03-22T07:27:46;27.70;58.10
23291;DHT22;11814;44.686;10.842;2024-03-22T07:30:14;27.80;56.70
23291;DHT22;11814;44.686;10.842;2024-03-22T07:32:40;27.90;56.40
23291;DHT22;11814;44.686;10.842;2024-03-22T07:35:05;28.40;56.10
23291;DHT22;11814;44.686;10.842;2024-03-22T07:37:32;28.90;55.00
23291;DHT22;11814;44.686;10.842;2024-03-22T07:39:59;29.30;54.10
23291;DHT22;11814;44.686;10.842;2024-03-22T07:42:25;29.60;53.40
23291;DHT22;11814;44.686;10.842;2024-03-22T07:44:50;29.90;52.70
23291;DHT22;11814;44.686;10.842;2024-03-22T07:47:16;29.90;52.50
23291;DHT22;11814;44.686;10.842;2024-03-22T07:49:42;30.30;51.90
23291;DHT22;11814;44.686;10.842;2024-03-22T07:52:07;30.50;51.20
23291;DHT22;11814;44.686;10.842;2024-03-22T07:54:33;30.60;51.10
23291;DHT22;11814;44.686;10.842;2024-03-22T07:56:59;30.60;50.90
23291;DHT22;11814;44.686;10.842;2024-03-22T07:59:24;30.80;50.80
23291;DHT22;11814;44.686;10.842;2024-03-22T08:01:50;31.20;50.30
23291;DHT22;11814;44.686;10.842;2024-03-22T08:04:16;31.50;49.30
23291;DHT22;11814;44.686;10.842;2024-03-22T08:06:45;31.70;49.20
23291;DHT22;11814;44.686;10.842;2024-03-22T08:09:11;31.90;48.50
23291;DHT22;11814;44.686;10.842;2024-03-22T08:11:36;32.00;48.10
23291;DHT22;11814;44.686;10.842;2024-03-22T08:14:02;32.20;47.80
23291;DHT22;11814;44.686;10.842;2024-03-22T08:16:32;32.60;47.20
23291;DHT22;11814;44.686;10.842;2024-03-22T08:18:57;32.80;46.50
23291;DHT22;11814;44.686;10.842;2024-03-22T08:21:27;32.80;46.40
23291;DHT22;11814;44.686;10.842;2024-03-22T08:23:52;32.80;46.50
23291;DHT22;11814;44.686;10.842;2024-03-22T08:26:18;33.10;46.20
23291;DHT22;11814;44.686;10.842;2024-03-22T08:28:45;32.80;45.30
23291;DHT22;11814;44.686;10.842;2024-03-22T08:31:11;32.30;46.00
23291;DHT22;11814;44.686;10.842;2024-03-22T08:33:37;32.20;46.20
23291;DHT22;11814;44.686;10.842;2024-03-22T08:36:02;32.40;46.40
23291;DHT22;11814;44.686;10.842;2024-03-22T08:38:28;32.80;45.60
23291;DHT22;11814;44.686;10.842;2024-03-22T08:40:53;32.80;45.20
23291;DHT22;11814;44.686;10.842;2024-03-22T08:43:20;32.90;45.00
23291;DHT22;11814;44.686;10.842;2024-03-22T08:45:48;33.30;44.60
23291;DHT22;11814;44.686;10.842;2024-03-22T08:48:13;33.70;44.00
23291;DHT22;11814;44.686;10.842;2024-03-22T08:50:42;33.40;44.10
23291;DHT22;11814;44.686;10.842;2024-03-22T08:53:08;33.20;43.60
23291;DHT22;11814;44.686;10.842;2024-03-22T08:55:33;33.00;43.60
23291;DHT22;11814;44.686;10.842;2024-03-22T08:57:59;33.10;44.00
23291;DHT22;11814;44.686;10.842;2024-03-22T09:00:25;33.40;44.00
23291;DHT22;11814;44.686;10.842;2024-03-22T09:02:50;33.90;43.60
23291;DHT22;11814;44.686;10.842;2024-03-22T09:05:16;34.00;43.30
23291;DHT22;11814;44.686;10.842;2024-03-22T09:07:42;33.90;42.60
23291;DHT22;11814;44.686;10.842;2024-03-22T09:10:07;33.90;42.70
23291;DHT22;11814;44.686;10.842;2024-03-22T09:12:34;34.20;42.50
23291;DHT22;11814;44.686;10.842;2024-03-22T09:15:00;34.30;41.90
23291;DHT22;11814;44.686;10.842;2024-03-22T09:17:27;34.40;41.70
23291;DHT22;11814;44.686;10.842;2024-03-22T09:19:53;34.50;41.70
23291;DHT22;11814;44.686;10.842;2024-03-22T09:22:18;34.80;41.50
23291;DHT22;11814;44.686;10.842;2024-03-22T09:24:44;35.20;41.40
23291;DHT22;11814;44.686;10.842;2024-03-22T09:27:09;35.30;40.80
23291;DHT22;11814;44.686;10.842;2024-03-22T09:29:38;35.10;40.80
23291;DHT22;11814;44.686;10.842;2024-03-22T09:32:04;35.00;41.40
23291;DHT22;11814;44.686;10.842;2024-03-22T09:34:30;34.80;42.40
23291;DHT22;11814;44.686;10.842;2024-03-22T09:36:57;34.50;43.10
23291;DHT22;11814;44.686;10.842;2024-03-22T09:39:22;34.30;44.50
23291;DHT22;11814;44.686;10.842;2024-03-22T09:41:50;34.30;44.30
23291;DHT22;11814;44.686;10.842;2024-03-22T09:44:18;34.30;44.20
23291;DHT22;11814;44.686;10.842;2024-03-22T09:46:44;34.10;43.80
23291;DHT22;11814;44.686;10.842;2024-03-22T09:49:12;33.80;44.30
23291;DHT22;11814;44.686;10.842;2024-03-22T09:51:39;33.60;44.70
23291;DHT22;11814;44.686;10.842;2024-03-22T09:54:05;33.60;44.70
23291;DHT22;11814;44.686;10.842;2024-03-22T09:56:31;33.50;45.30
23291;DHT22;11814;44.686;10.842;2024-03-22T09:58:59;33.20;45.20
23291;DHT22;11814;44.686;10.842;2024-03-22T10:01:25;33.00;45.70
23291;DHT22;11814;44.686;10.842;2024-03-22T10:03:52;32.70;46.30
23291;DHT22;11814;44.686;10.842;2024-03-22T10:06:18;32.40;46.90
23291;DHT22;11814;44.686;10.842;2024-03-22T10:08:44;32.10;47.60
23291;DHT22;11814;44.686;10.842;2024-03-22T10:11:10;32.00;48.00
23291;DHT22;11814;44.686;10.842;2024-03-22T10:13:36;31.60;48.00
23291;DHT22;11814;44.686;10.842;2024-03-22T10:16:02;31.50;48.80
23291;DHT22;11814;44.686;10.842;2024-03-22T10:18:28;31.50;49.00
23291;DHT22;11814;44.686;10.842;2024-03-22T10:21:01;31.60;48.60
23291;DHT22;11814;44.686;10.842;2024-03-22T10:23:27;31.50;48.50
23291;DHT22;11814;44.686;10.842;2024-03-22T10:25:53;31.50;48.50
23291;DHT22;11814;44.686;10.842;2024-03-22T10:28:19;31.20;48.80
23291;DHT22;11814;44.686;10.842;2024-03-22T10:30:44;31.10;49.20
23291;DHT22;11814;44.686;10.842;2024-03-22T10:33:13;31.00;48.90
23291;DHT22;11814;44.686;10.842;2024-03-22T10:35:40;30.80;49.60
23291;DHT22;11814;44.686;10.842;2024-03-22T10:38:07;30.50;49.60
23291;DHT22;11814;44.686;10.842;2024-03-22T10:40:35;30.10;50.20
23291;DHT22;11814;44.686;10.842;2024-03-22T10:43:01;29.70;50.50
23291;DHT22;11814;44.686;10.842;2024-03-22T10:45:29;29.30;50.80
23291;DHT22;11814;44.686;10.842;2024-03-22T10:47:55;29.10;51.70
23291;DHT22;11814;44.686;10.842;2024-03-22T10:50:22;28.80;51.90
23291;DHT22;11814;44.686;10.842;2024-03-22T10:53:14;28.90;52.50
23291;DHT22;11814;44.686;10.842;2024-03-22T10:55:42;28.90;52.70
23291;DHT22;11814;44.686;10.842;2024-03-22T10:58:20;29.20;52.50
23291;DHT22;11814;44.686;10.842;2024-03-22T11:00:46;29.20;52.10
23291;DHT22;11814;44.686;10.842;2024-03-22T11:03:15;29.40;52.20
23291;DHT22;11814;44.686;10.842;2024-03-22T11:05:47;29.40;51.40
23291;DHT22;11814;44.686;10.842;2024-03-22T11:08:26;29.20;51.00
23291;DHT22;11814;44.686;10.842;2024-03-22T11:10:52;29.00;51.40
23291;DHT22;11814;44.686;10.842;2024-03-22T11:13:18;29.10;51.60
23291;DHT22;11814;44.686;10.842;2024-03-22T11:15:47;29.10;52.00
23291;DHT22;11814;44.686;10.842;2024-03-22T11:18:13;29.10;52.20
23291;DHT22;11814;44.686;10.842;2024-03-22T11:20:39;29.30;51.50
23291;DHT22;11814;44.686;10.842;2024-03-22T11:23:05;29.40;51.00
23291;DHT22;11814;44.686;10.842;2024-03-22T11:25:34;29.20;51.00
23291;DHT22;11814;44.686;10.842;2024-03-22T11:28:00;29.10;50.50
23291;DHT22;11814;44.686;10.842;2024-03-22T11:30:28;28.80;50.00
23291;DHT22;11814;44.686;10.842;2024-03-22T11:32:54;28.30;50.20
23291;DHT22;11814;44.686;10.842;2024-03-22T11:35:21;28.30;50.70
23291;DHT22;11814;44.686;10.842;2024-03-22T11:37:47;28.30;50.40
23291;DHT22;11814;44.686;10.842;2024-03-22T11:40:12;28.40;50.20
23291;DHT22;11814;44.686;10.842;2024-03-22T11:42:39;28.50;50.20
23291;DHT22;11814;44.686;10.842;2024-03-22T11:45:10;28.50;50.30
23291;DHT22;11814;44.686;10.842;2024-03-22T11:47:37;28.50;50.10
23291;DHT22;11814;44.686;10.842;2024-03-22T11:50:02;28.40;50.20
23291;DHT22;11814;44.686;10.842;2024-03-22T11:52:29;28.30;50.50
23291;DHT22;11814;44.686;10.842;2024-03-22T11:54:55;28.10;50.90
23291;DHT22;11814;44.686;10.842;2024-03-22T11:57:21;28.00;50.70
23291;DHT22;11814;44.686;10.842;2024-03-22T11:59:47;27.90;50.40
23291;DHT22;11814;44.686;10.842;2024-03-22T12:02:13;27.80;50.50
23291;DHT22;11814;44.686;10.842;2024-03-22T12:04:42;27.80;50.90
23291;DHT22;11814;44.686;10.842;2024-03-22T12:07:12;27.80;51.00
23291;DHT22;11814;44.686;10.842;2024-03-22T12:09:39;27.80;51.00
23291;DHT22;11814;44.686;10.842;2024-03-22T12:12:06;27.80;50.80
23291;DHT22;11814;44.686;10.842;2024-03-22T12:14:33;27.70;50.40
23291;DHT22;11814;44.686;10.842;2024-03-22T12:16:58;27.50;50.80
23291;DHT22;11814;44.686;10.842;2024-03-22T12:19:24;27.50;50.90
23291;DHT22;11814;44.686;10.842;2024-03-22T12:21:50;27.40;50.30
23291;DHT22;11814;44.686;10.842;2024-03-22T12:24:15;26.90;50.40
23291;DHT22;11814;44.686;10.842;2024-03-22T12:26:41;26.90;50.90
23291;DHT22;11814;44.686;10.842;2024-03-22T12:29:07;27.00;51.10
23291;DHT22;11814;44.686;10.842;2024-03-22T12:31:32;26.70;51.40
23291;DHT22;11814;44.686;10.842;2024-03-22T12:33:58;26.70;52.00
23291;DHT22;11814;44.686;10.842;2024-03-22T12:36:24;26.80;52.00
23291;DHT22;11814;44.686;10.842;2024-03-22T12:38:50;27.00;51.90
23291;DHT22;11814;44.686;10.842;2024-03-22T12:41:16;27.20;51.50
23291;DHT22;11814;44.686;10.842;2024-03-22T12:43:42;27.20;50.80
23291;DHT22;11814;44.686;10.842;2024-03-22T12:46:08;27.30;50.80
23291;DHT22;11814;44.686;10.842;2024-03-22T12:48:34;27.30;51.00
23291;DHT22;11814;44.686;10.842;2024-03-22T12:51:00;27.20;50.80
23291;DHT22;11814;44.686;10.842;2024-03-22T12:53:25;27.10;50.20
23291;DHT22;11814;44.686;10.842;2024-03-22T12:55:51;27.00;50.50
23291;DHT22;11814;44.686;10.842;2024-03-22T12:58:17;26.90;49.70
23291;DHT22;11814;44.686;10.842;2024-03-22T13:00:42;26.80;48.70
23291;DHT22;11814;44.686;10.842;2024-03-22T13:03:08;26.70;47.50
23291;DHT22;11814;44.686;10.842;2024-03-22T13:05:35;26.60;47.10
23291;DHT22;11814;44.686;10.842;2024-03-22T13:08:01;26.60;46.80
23291;DHT22;11814;44.686;10.842;2024-03-22T13:10:27;26.60;46.50
23291;DHT22;11814;44.686;10.842;2024-03-22T13:12:52;26.40;46.40
23291;DHT22;11814;44.686;10.842;2024-03-22T13:15:18;26.10;45.50
23291;DHT22;11814;44.686;10.842;2024-03-22T13:17:44;25.70;45.30
23291;DHT22;11814;44.686;10.842;2024-03-22T13:20:10;25.50;44.60
23291;DHT22;11814;44.686;10.842;2024-03-22T13:22:38;25.40;43.60
23291;DHT22;11814;44.686;10.842;2024-03-22T13:25:05;25.30;43.00
23291;DHT22;11814;44.686;10.842;2024-03-22T13:27:33;25.10;44.30
23291;DHT22;11814;44.686;10.842;2024-03-22T13:30:00;25.20;45.30
23291;DHT22;11814;44.686;10.842;2024-03-22T13:32:25;25.20;45.40
23291;DHT22;11814;44.686;10.842;2024-03-22T13:34:51;25.30;45.50
23291;DHT22;11814;44.686;10.842;2024-03-22T13:37:16;25.30;45.20
23291;DHT22;11814;44.686;10.842;2024-03-22T13:39:42;25.30;45.10
23291;DHT22;11814;44.686;10.842;2024-03-22T13:42:10;25.20;44.00
23291;DHT22;11814;44.686;10.842;2024-03-22T13:44:37;25.20;43.80
23291;DHT22;11814;44.686;10.842;2024-03-22T13:47:03;25.20;44.30
23291;DHT22;11814;44.686;10.842;2024-03-22T13:49:30;25.30;45.00
23291;DHT22;11814;44.686;10.842;2024-03-22T13:51:58;25.30;44.80
23291;DHT22;11814;44.686;10.842;2024-03-22T13:54:24;25.10;44.60
23291;DHT22;11814;44.686;10.842;2024-03-22T13:56:50;25.00;45.60
23291;DHT22;11814;44.686;10.842;2024-03-22T13:59:16;24.90;46.40
23291;DHT22;11814;44.686;10.842;2024-03-22T14:01:42;24.80;47.00
23291;DHT22;11814;44.686;10.842;2024-03-22T14:04:11;24.60;47.30
23291;DHT22;11814;44.686;10.842;2024-03-22T14:06:37;24.60;47.40
23291;DHT22;11814;44.686;10.842;2024-03-22T14:09:03;24.60;47.60
23291;DHT22;11814;44.686;10.842;2024-03-22T14:11:32;24.70;47.60
23291;DHT22;11814;44.686;10.842;2024-03-22T14:13:58;24.70;47.40
23291;DHT22;11814;44.686;10.842;2024-03-22T14:16:24;24.60;47.10
23291;DHT22;11814;44.686;10.842;2024-03-22T14:18:50;24.70;47.20
23291;DHT22;11814;44.686;10.842;2024-03-22T14:21:17;24.80;47.00
23291;DHT22;11814;44.686;10.842;2024-03-22T14:23:49;24.90;46.40
23291;DHT22;11814;44.686;10.842;2024-03-22T14:26:16;24.70;46.20
23291;DHT22;11814;44.686;10.842;2024-03-22T14:28:42;24.60;46.50
23291;DHT22;11814;44.686;10.842;2024-03-22T14:31:09;24.70;46.50
23291;DHT22;11814;44.686;10.842;2024-03-22T14:33:39;24.60;46.50
23291;DHT22;11814;44.686;10.842;2024-03-22T14:36:06;24.70;46.50
23291;DHT22;11814;44.686;10.842;2024-03-22T14:38:32;24.80;46.70
23291;DHT22;11814;44.686;10.842;2024-03-22T14:40:58;24.80;46.80
23291;DHT22;11814;44.686;10.842;2024-03-22T14:43:24;24.70;46.50
23291;DHT22;11814;44.686;10.842;2024-03-22T14:45:54;24.60;46.40
23291;DHT22;11814;44.686;10.842;2024-03-22T14:48:23;24.30;46.70
23291;DHT22;11814;44.686;10.842;2024-03-22T14:50:49;24.20;47.00
23291;DHT22;11814;44.686;10.842;2024-03-22T14:53:16;24.20;47.50
23291;DHT22;11814;44.686;10.842;2024-03-22T14:55:55;24.20;47.20
23291;DHT22;11814;44.686;10.842;2024-03-22T14:58:24;24.20;47.60
23291;DHT22;11814;44.686;10.842;2024-03-22T15:00:54;24.10;47.50
23291;DHT22;11814;44.686;10.842;2024-03-22T15:03:21;24.10;47.50
23291;DHT22;11814;44.686;10.842;2024-03-22T15:05:48;24.00;47.90
23291;DHT22;11814;44.686;10.842;2024-03-22T15:08:14;24.00;47.40